AirNav   Air Wisconsin pilot careers
 
 334 users online  

MO3 Stockton Municipal Airport
Stockton, Missouri, USA

GOING TO STOCKTON?


FAA INFORMATION EFFECTIVE 26 APRIL 2018

Location

FAA Identifier: MO3
Lat/Long: 37-39-37.0000N / 093-49-00.6000W
37-39.616667N / 093-49.010000W
37.6602778 / -93.8168333
(estimated)
Elevation: 1042.5 ft. / 317.8 m (surveyed)
Variation: 03E (2000)
From city: 3 miles SW of STOCKTON, MO
Time zone: UTC -5 (UTC -6 during Standard Time)
Zip code: 65785

Airport Operations

Airport use: Open to the public
Activation date: 07/1964
Control tower: no
ARTCC: KANSAS CITY CENTER
FSS: COLUMBIA FLIGHT SERVICE STATION
NOTAMs facility: COU (NOTAM-D service available)
Attendance: UNATNDD
Wind indicator: yes
Segmented circle: no
Lights: ACTVT LIRL RY 01/19 5 CLICKS.
Beacon: white-green (lighted land airport)
Operates sunset to sunrise.

Airport Communications

CTAF: 122.9
SPRINGFIELD APPROACH: 124.95
SPRINGFIELD DEPARTURE: 124.95

Nearby radio navigation aids

VOR radial/distance  VOR name  Freq  Var
SGFr304/29.4SPRINGFIELD VORTAC116.9004E

Airport Services

Fuel available: 100LL
Parking: tiedowns
Bottled oxygen: NONE
Bulk oxygen: NONE

Runway Information

Runway 1/19

Dimensions: 3060 x 50 ft. / 933 x 15 m
Surface: asphalt, in fair condition
CRACKS WITH VEGETATION LENGTH OF RY.
Runway edge lights: low intensity
RUNWAY 1  RUNWAY 19
Latitude: 37-39.374453N37-39.857947N
Longitude: 093-49.099575W093-48.920073W
Elevation: 1034.6 ft.1037.1 ft.
Traffic pattern: leftleft
Runway heading: 013 magnetic, 016 true193 magnetic, 196 true
Markings: nonprecision, in good conditionnonprecision, in good condition
Touchdown point: yes, no lightsyes, no lights
Obstructions: 35 ft. trees, 725 ft. from runway, 200 ft. left and right of centerline, 15:1 slope to clear
RY 01 +7-10 FT BRUSH AND SMALL TREES.
25 ft. pole, 288 ft. from runway, 227 ft. left of centerline, 3:1 slope to clear
RY 19 +6-8 FT BRUSH AND SMALL TREES

Airport Ownership and Management from official FAA records

Ownership: Publicly-owned
Owner: CITY OF STOCKTON
1424 SOUTH ST.
STOCKTON, MO 65785
Phone (417) 808-0222
Manager: RAYMOND HERYFORD
1424 SOUTH ST.
STOCKTON, MO 65785
Phone (417) 955-1432
CITY OF STOCKTON/CITY BUILDING INSPECTOR

Airport Operational Statistics

Aircraft based on the field: 7
Single engine airplanes: 7
    
Aircraft operations: avg 23/week *
65% transient general aviation
18% local general aviation
17% military
* for 12-month period ending 31 December 2014

Additional Remarks

WILDLIFE ON & INVOF ARPT.
INSUFFICIENT RY SAFETY AREA AT RY 01 END. LARGE DROPOFF & INCORRECT GRADE.
FUEL PUMPS ARE SELF SERVICE

Instrument Procedures

NOTE: All procedures below are presented as PDF files. If you need a reader for these files, you should download the free Adobe Reader.

NOT FOR NAVIGATION. Please procure official charts for flight.
FAA instrument procedures published for use from 26 April 2018 at 901Z to 24 May 2018 at 0900Z.

 
IAPs - Instrument Approach Procedures
RNAV (GPS) RWY 01   download (162KB)
RNAV (GPS) RWY 19   download (182KB)
VOR/DME-A   download (188KB)
NOTE: Special Take-Off Minimums/Departure Procedures apply   download (158KB)

Other nearby airports with instrument procedures:

M17 - Bolivar Municipal Airport (23 nm E)
KLLU - Lamar Municipal Airport (26 nm SW)
KNVD - Nevada Municipal Airport (26 nm NW)
KSGF - Springfield-Branson National Airport (32 nm SE)
3DW - Downtown Airport (38 nm SE)
 
Loc | Ops | Rwys | IFR | FBO | Links
Com | Nav | Svcs | Stats | Notes

Kansas City Aviation Department
 
Area around MO3 (Stockton Municipal Airport)
 
Road maps at: MapQuest Bing Google
 
Aerial photo
WARNING: Photo may not be current or correct
Aerial photo of MO3 (Stockton Municipal Airport)
Photo taken 09-Aug-2009

Do you have a better or more recent aerial photo of Stockton Municipal Airport that you would like to share? If so, please send us your photo.

 
Sectional chart

 
Airport distance calculator
Flying to Stockton Municipal Airport? Find the distance to fly.

From to MO3

Sunrise and sunset
Times for 23-May-2018
 Local
(UTC-5)
 Zulu
(UTC)
Morning civil twilight05:3110:31
Sunrise06:0111:01
Sunset20:2301:23
Evening civil twilight20:5301:53

Current date and time
Zulu (UTC)  23-May-2018 07:53:39
Local (UTC-5)  23-May-2018 02:53:39
 
METAR
KSGF 
33nm SE 
230652Z 15003KT 10SM CLR 21/18 A3005 RMK AO2 SLP161 T02060178
KGLY 
42nm N 
230735Z AUTO 00000KT 10SM CLR 19/19 A3004 RMK AO2
KJLN 
45nm SW 
230653Z AUTO 00000KT 10SM CLR 19/18 A3003 RMK AO2 SLP159 T01890183
KPTS 
45nm W 
230735Z AUTO 00000KT 10SM CLR 22/22 A3002 RMK AO2 T02170218
KHFJ 
46nm S 
230730Z AUTO 13004KT 10SM CLR 19/18 A3005 RMK AO2
KRAW 
47nm NE 
230735Z AUTO 00000KT 10SM CLR A3005 RMK AO2
TAF
KSGF 
33nm SE 
230520Z 2306/2406 VRB04KT P6SM SCT250 TEMPO 2310/2314 3SM BR FM231400 15010KT P6SM SCT050 PROB30 2318/2324 4SM TSRA BKN050CB FM240000 15006KT P6SM BKN250
NOTAMs
Click for the latest NOTAMs
NOTAMs are issued by the DoD/FAA and will open in a separate window not controlled by AirNav.

 

 
 

FBO, Fuel Providers, and Aircraft Ground Support

  
 Business Name 
 
 Contact 
 
 Services / Description 
 
Fuel Prices
 
Comments
  
Stockton Municipal Airport 417-276-5210 Airport management, Aviation fuel, Aircraft parking (ramp or tiedown), Rental cars, Courtesy transportation, Pilots lounge / snooze room, Public telephone, Restrooms

More info about Stockton Municipal Airport
independent
100LL
SS $4.40 
 Updated 07-May-2018
 
   write
SS=Self service
Update Fuel Prices
 

Would you like to see your business listed on this page?

 If your business provides an interesting product or service to pilots, flight crews, aircraft, or users of the Stockton Municipal Airport, you should consider listing it here.  To start the listing process, click on the button below
 
Add a business
 

Other Pages about Stockton Municipal Airport

Update a link
 
Copyright © AirNav, LLC. All rights reserved. Privacy Policy  Contact